Ponchatoula, LA (70454)

3:36 AM CDT on October 01, 2014 (GMT -0500)
Bayou Canada North | Change Station
CLOSE
Current Station
Personal Weather Station
Location: Ponchatoula, LA
Elevation: 35 ft
Nearby Weather Stations

Elev 35 ft 30.45 °N, 90.36 °W | Updated 0 second ago

Clear
Clear
68.5 °F
Feels Like 68.5 °F
N
0.0
Wind Variable Wind from ESE
Gusts 0.0 mph

Today
High -- | Low -- °F
--% Chance of Precip.
Yesterday
High -- | Low -- °F
Precip. -- in
6:55 AM 6:46 PM
Waxing Crescent, 45% visible
Pressure 29.90 in
Visibility 10.0 miles
Clouds Clear
Dew Point 68 °F
Humidity 100%
Rainfall 0.00 in
Snow Depth Not available.
UV 0 out of 12
Pollen 7.30 out of 12
Air Quality Not available.
Flu Activity Not available.
METAR KHDC 010755Z AUTO 00000KT 10SM CLR 21/20 A2990 RMK AO2

More Conditions Fewer Conditions

Pressure 29.90 in
Visibility 10.0 miles
Clouds Clear
Dew Point 68 °F
Humidity 100%
Rainfall 0.00 in
Snow Depth Not available.
UV 0 out of 12
Pollen 7.30 out of 12
Air Quality Not available.
Flu Activity Not available.
METAR KHDC 010755Z AUTO 00000KT 10SM CLR 21/20 A2990 RMK AO2

More Conditions Fewer Conditions

10-Day Weather Forecast

Almanac

Astronomy

Oct. 01, 2014 Rise Set
Actual Time 6:55 AM CDT 6:46 PM CDT
Civil Twilight 6:31 AM CDT 7:10 PM CDT
Nautical Twilight 6:03 AM CDT 7:38 PM CDT
Astronomical Twilight 5:35 AM CDT 8:06 PM CDT
Moon 1:38 PM CDT No Moon Set
Length of Visible Light 12h 39m
Length of Day
11h 51m
Tomorrow will be 1m 50s shorter.
Waxing Crescent, 45% of the Moon is Illuminated
Today
Waxing Crescent
Oct 1
First Quarter
Oct 8
Full
Oct 15
Last Quarter
Oct 23
New

Today's Extremes

State Highs State Lows

Community

WunderPhotos

Upload Photos

1,757,902 photos uploaded!

Nearby

Snow Depth

Station Depth Elevation
No new snow has been reported.

Earthquake Activity

City Distance Mag. Time & Date
No recent earthquake activity has been reported nearby.
Minimum magnitude displayed is 2.5.

Coastal Water Temperatures

Place Temperature
New Canal, LA 77.0 °F
Shell Beach, LA 75.9 °F
Bayou Gauche, LA 82.0 °F

Nearby Weather Stations